Time;durP1;ratioP1;P1;durP2;ratioP2;P2;SDS_P1;SDS_P2;PMS_P1;PMS_P2;Temp;Humidity;BMP_temperature;BMP_pressure;BME280_temperature;BME280_humidity;BME280_pressure;Samples;Min_cycle;Max_cycle;Signal;HPM_P1;HPM_P2
2024/03/29 00:02:14;;;;;;;5.18;3.03;;;;;;;;;;4990835;28;20057;-78
2024/03/29 00:04:43;;;;;;;7.22;3.45;;;;;;;;;;5021467;28;20033;-73
2024/03/29 00:07:12;;;;;;;6.45;3.30;;;;;;;;;;5022260;28;20041;-72
2024/03/29 00:09:40;;;;;;;7.10;3.35;;;;;;;;;;5006687;28;20048;-77
2024/03/29 00:12:08;;;;;;;8.57;3.17;;;;;;;;;;5033435;28;20037;-73
2024/03/29 00:14:37;;;;;;;8.38;3.45;;;;;;;;;;5041223;28;20041;-71
2024/03/29 00:17:06;;;;;;;7.97;3.17;;;;;;;;;;5041613;28;20511;-72
2024/03/29 00:19:34;;;;;;;8.40;3.25;;;;;;;;;;5041474;28;20037;-74
2024/03/29 00:22:03;;;;;;;15.07;3.75;;;;;;;;;;5026663;28;20064;-74
2024/03/29 00:24:32;;;;;;;7.28;3.50;;;;;;;;;;5047031;28;20041;-73
2024/03/29 00:27:02;;;;;;;;;;;;;;;;;;5045830;28;20526;-76
2024/03/29 00:29:31;;;;;;;15.52;2.97;;;;;;;;;;5041831;28;19924;-75
2024/03/29 00:32:01;;;;;;;11.18;3.70;;;;;;;;;;5039177;28;20041;-76
2024/03/29 00:34:31;;;;;;;13.25;3.92;;;;;;;;;;5040013;28;20509;-74
2024/03/29 00:36:59;;;;;;;10.80;3.60;;;;;;;;;;5039205;28;20055;-74
2024/03/29 00:39:28;;;;;;;8.77;2.95;;;;;;;;;;5025467;28;20041;-76
2024/03/29 00:41:56;;;;;;;9.32;3.42;;;;;;;;;;5025891;28;20056;-75
2024/03/29 00:44:26;;;;;;;4.80;2.63;;;;;;;;;;5041166;28;21042;-73
2024/03/29 00:46:54;;;;;;;10.57;3.35;;;;;;;;;;5042043;28;20044;-73
2024/03/29 00:49:23;;;;;;;9.10;2.97;;;;;;;;;;5042174;28;20052;-75
2024/03/29 00:51:51;;;;;;;12.18;3.28;;;;;;;;;;5041546;28;20041;-73
2024/03/29 00:54:19;;;;;;;6.65;2.80;;;;;;;;;;5041441;28;20044;-74
2024/03/29 00:56:48;;;;;;;8.90;3.15;;;;;;;;;;5041687;28;20072;-74
2024/03/29 00:59:16;;;;;;;10.18;3.22;;;;;;;;;;5041720;28;20053;-75
2024/03/29 01:01:45;;;;;;;8.15;2.97;;;;;;;;;;5042244;28;20040;-74
2024/03/29 01:04:14;;;;;;;6.50;3.38;;;;;;;;;;5041066;28;20044;-75
2024/03/29 01:06:43;;;;;;;6.45;2.92;;;;;;;;;;5025057;28;20053;-74
2024/03/29 01:09:11;;;;;;;9.23;3.20;;;;;;;;;;5040964;28;20067;-74
2024/03/29 01:11:40;;;;;;;13.95;3.85;;;;;;;;;;5041785;28;20522;-75
2024/03/29 01:14:08;;;;;;;8.55;3.80;;;;;;;;;;5040586;28;20056;-74
2024/03/29 01:16:37;;;;;;;7.85;3.40;;;;;;;;;;5040380;28;20049;-76
2024/03/29 01:19:06;;;;;;;14.43;3.30;;;;;;;;;;5040918;28;20049;-74
2024/03/29 01:21:34;;;;;;;11.93;3.10;;;;;;;;;;5024491;28;20037;-74
2024/03/29 01:24:04;;;;;;;5.68;2.90;;;;;;;;;;5041339;28;20689;-74
2024/03/29 01:26:32;;;;;;;5.90;3.00;;;;;;;;;;5040819;28;20067;-75
2024/03/29 01:29:02;;;;;;;10.23;3.20;;;;;;;;;;5024586;28;21109;-75
2024/03/29 01:31:31;;;;;;;11.15;3.33;;;;;;;;;;5024826;28;20051;-74
2024/03/29 01:34:02;;;;;;;10.02;2.72;;;;;;;;;;5040369;28;20045;-73
2024/03/29 01:36:30;;;;;;;11.05;3.15;;;;;;;;;;5040522;28;20049;-75
2024/03/29 01:39:00;;;;;;;9.95;3.25;;;;;;;;;;5040488;28;20041;-75
2024/03/29 01:41:29;;;;;;;14.43;2.90;;;;;;;;;;5040676;28;20458;-74
2024/03/29 01:43:57;;;;;;;6.00;3.17;;;;;;;;;;5041362;28;20048;-72
2024/03/29 01:46:26;;;;;;;;;;;;;;;;;;5042669;28;20503;-74
2024/03/29 01:48:55;;;;;;;11.48;3.10;;;;;;;;;;5041215;28;20323;-75
2024/03/29 01:51:23;;;;;;;;;;;;;;;;;;5024194;28;20060;-73
2024/03/29 01:53:54;;;;;;;6.72;2.83;;;;;;;;;;5040446;28;19947;-75
2024/03/29 01:56:23;;;;;;;5.65;2.90;;;;;;;;;;5040380;28;20499;-75
2024/03/29 01:58:55;;;;;;;11.32;3.15;;;;;;;;;;5040570;28;20053;-73
2024/03/29 02:01:27;;;;;;;6.35;3.40;;;;;;;;;;5040349;28;20052;-73
2024/03/29 02:03:56;;;;;;;6.60;3.03;;;;;;;;;;5024694;28;20052;-73
2024/03/29 02:06:25;;;;;;;5.93;3.28;;;;;;;;;;5039753;28;20435;-74
2024/03/29 02:08:54;;;;;;;12.25;3.42;;;;;;;;;;5040429;28;20048;-73
2024/03/29 02:11:23;;;;;;;6.05;3.45;;;;;;;;;;5040645;28;20056;-76
2024/03/29 02:13:52;;;;;;;7.20;3.30;;;;;;;;;;5041642;28;20047;-73
2024/03/29 02:16:20;;;;;;;7.95;3.70;;;;;;;;;;5040674;28;20056;-74
2024/03/29 02:18:48;;;;;;;5.53;3.30;;;;;;;;;;5041366;28;20033;-76
2024/03/29 02:21:16;;;;;;;7.47;3.03;;;;;;;;;;5040595;28;20045;-74
2024/03/29 02:23:50;;;;;;;8.60;3.30;;;;;;;;;;5040327;28;20045;-76
2024/03/29 02:26:20;;;;;;;4.13;3.10;;;;;;;;;;5040577;28;20045;-75
2024/03/29 02:28:53;;;;;;;8.50;3.35;;;;;;;;;;5040587;28;20048;-74
2024/03/29 02:31:21;;;;;;;5.13;3.40;;;;;;;;;;5040431;28;20045;-75
2024/03/29 02:33:49;;;;;;;6.03;3.22;;;;;;;;;;5040539;28;20045;-75
2024/03/29 02:36:18;;;;;;;10.68;3.60;;;;;;;;;;5023695;28;20049;-75
2024/03/29 02:38:46;;;;;;;15.77;3.78;;;;;;;;;;5023717;28;20057;-74
2024/03/29 02:41:15;;;;;;;15.25;3.83;;;;;;;;;;5040333;28;20045;-75
2024/03/29 02:43:43;;;;;;;17.08;3.97;;;;;;;;;;5040882;28;20415;-73
2024/03/29 02:46:12;;;;;;;9.38;3.75;;;;;;;;;;5044148;28;20045;-73
2024/03/29 02:48:41;;;;;;;15.75;3.55;;;;;;;;;;5043569;28;20084;-73
2024/03/29 02:51:10;;;;;;;21.88;3.80;;;;;;;;;;5044063;28;20884;-74
2024/03/29 02:53:38;;;;;;;19.42;4.13;;;;;;;;;;5043528;28;20040;-73
2024/03/29 02:56:07;;;;;;;19.75;4.10;;;;;;;;;;5027349;28;20049;-75
2024/03/29 02:58:36;;;;;;;10.88;3.90;;;;;;;;;;5043938;28;20508;-74
2024/03/29 03:01:09;;;;;;;11.95;3.45;;;;;;;;;;5043783;28;20044;-74
2024/03/29 03:03:37;;;;;;;13.82;3.75;;;;;;;;;;5043759;28;20047;-73
2024/03/29 03:06:06;;;;;;;11.05;3.55;;;;;;;;;;5043587;28;20048;-74
2024/03/29 03:11:25;;;;;;;10.23;3.50;;;;;;;;;;5025954;28;21182;-73
2024/03/29 03:13:53;;;;;;;12.20;3.45;;;;;;;;;;5043946;28;20496;-75
2024/03/29 03:16:21;;;;;;;5.97;3.83;;;;;;;;;;5043086;28;20704;-74
2024/03/29 03:18:51;;;;;;;8.98;3.95;;;;;;;;;;5027675;28;20056;-75
2024/03/29 03:21:20;;;;;;;8.85;3.38;;;;;;;;;;5043078;28;20060;-72
2024/03/29 03:23:48;;;;;;;13.23;3.42;;;;;;;;;;5043612;28;20510;-73
2024/03/29 03:26:17;;;;;;;13.18;3.83;;;;;;;;;;5027714;28;20045;-73
2024/03/29 03:28:45;;;;;;;17.45;4.43;;;;;;;;;;5043407;28;20052;-73
2024/03/29 03:31:14;;;;;;;16.90;3.80;;;;;;;;;;5042539;28;20056;-72
2024/03/29 03:33:43;;;;;;;6.32;3.25;;;;;;;;;;5043625;28;20049;-75
2024/03/29 03:36:11;;;;;;;9.98;3.65;;;;;;;;;;5042684;28;20427;-75
2024/03/29 03:38:40;;;;;;;12.93;3.60;;;;;;;;;;5043165;28;20770;-74
2024/03/29 03:41:08;;;;;;;9.82;3.58;;;;;;;;;;5026356;28;20067;-75
2024/03/29 03:43:36;;;;;;;9.10;3.90;;;;;;;;;;5042920;28;20053;-74
2024/03/29 03:46:05;;;;;;;9.10;3.80;;;;;;;;;;5042982;28;20037;-73
2024/03/29 03:48:33;;;;;;;10.98;3.67;;;;;;;;;;5042846;28;20075;-75
2024/03/29 03:51:03;;;;;;;10.07;3.72;;;;;;;;;;5042813;28;20053;-74
2024/03/29 03:53:31;;;;;;;18.00;3.50;;;;;;;;;;5026442;28;20041;-72
2024/03/29 03:55:59;;;;;;;7.57;3.40;;;;;;;;;;5041917;28;20053;-73
2024/03/29 03:58:28;;;;;;;8.70;3.70;;;;;;;;;;5043183;28;20044;-74
2024/03/29 04:00:56;;;;;;;7.15;3.25;;;;;;;;;;5027051;28;20044;-75
2024/03/29 04:03:25;;;;;;;12.50;3.95;;;;;;;;;;5042328;28;20053;-74
2024/03/29 04:05:53;;;;;;;11.05;3.65;;;;;;;;;;5042327;28;21213;-73
2024/03/29 04:08:22;;;;;;;8.55;3.45;;;;;;;;;;5042116;28;20048;-74
2024/03/29 04:10:50;;;;;;;9.48;3.38;;;;;;;;;;5042497;28;20047;-74
2024/03/29 04:13:19;;;;;;;8.35;3.53;;;;;;;;;;5041945;28;20063;-75
2024/03/29 04:15:48;;;;;;;18.05;3.53;;;;;;;;;;5042317;28;20048;-73
2024/03/29 04:18:16;;;;;;;16.92;3.67;;;;;;;;;;5041312;28;20048;-73
2024/03/29 04:20:45;;;;;;;9.30;3.42;;;;;;;;;;5042584;28;20045;-75
2024/03/29 04:23:13;;;;;;;11.52;3.50;;;;;;;;;;5041707;28;20523;-73
2024/03/29 04:25:54;;;;;;;12.60;3.75;;;;;;;;;;5042002;28;20535;-74
2024/03/29 04:28:23;;;;;;;9.00;3.30;;;;;;;;;;5042209;28;20041;-74
2024/03/29 04:30:56;;;;;;;8.27;3.63;;;;;;;;;;5042234;28;20041;-75
2024/03/29 04:33:25;;;;;;;10.23;3.95;;;;;;;;;;5025602;28;20079;-74
2024/03/29 04:36:00;;;;;;;6.60;3.45;;;;;;;;;;5042361;28;20378;-75
2024/03/29 04:38:30;;;;;;;11.13;3.85;;;;;;;;;;5042004;28;20048;-74
2024/03/29 04:40:59;;;;;;;9.98;3.75;;;;;;;;;;5041531;28;20410;-73
2024/03/29 04:43:29;;;;;;;6.82;3.58;;;;;;;;;;5042483;28;20694;-74
2024/03/29 04:46:09;;;;;;;11.15;3.58;;;;;;;;;;5042031;28;20045;-75
2024/03/29 04:48:40;;;;;;;7.10;3.70;;;;;;;;;;5042187;28;20435;-75
2024/03/29 04:51:09;;;;;;;6.38;3.60;;;;;;;;;;5041520;28;20499;-73
2024/03/29 04:53:38;;;;;;;10.73;3.80;;;;;;;;;;5041596;28;20045;-75
2024/03/29 04:56:07;;;;;;;9.68;3.50;;;;;;;;;;5041070;28;20045;-74
2024/03/29 04:58:36;;;;;;;8.82;3.95;;;;;;;;;;5041271;28;20044;-74
2024/03/29 05:01:05;;;;;;;6.60;3.25;;;;;;;;;;5041360;28;20045;-74
2024/03/29 05:03:33;;;;;;;10.23;3.58;;;;;;;;;;5041808;28;20049;-74
2024/03/29 05:06:01;;;;;;;8.50;3.42;;;;;;;;;;5041489;28;20045;-73
2024/03/29 05:08:31;;;;;;;11.82;3.47;;;;;;;;;;5040104;28;20055;-73
2024/03/29 05:11:00;;;;;;;6.07;3.70;;;;;;;;;;5040880;28;20053;-76
2024/03/29 05:13:29;;;;;;;7.40;3.92;;;;;;;;;;5025157;28;20071;-74
2024/03/29 05:15:58;;;;;;;7.60;3.90;;;;;;;;;;5041233;28;20510;-74
2024/03/29 05:18:27;;;;;;;7.30;3.40;;;;;;;;;;5041201;28;20048;-74
2024/03/29 05:20:55;;;;;;;7.18;3.10;;;;;;;;;;5041296;28;20045;-73
2024/03/29 05:23:23;;;;;;;7.93;3.75;;;;;;;;;;5041834;28;20076;-76
2024/03/29 05:25:52;;;;;;;8.82;3.53;;;;;;;;;;5041131;28;20033;-74
2024/03/29 05:28:21;;;;;;;5.28;3.83;;;;;;;;;;5040974;28;20037;-75
2024/03/29 05:30:50;;;;;;;12.07;3.60;;;;;;;;;;5041131;28;20043;-74
2024/03/29 05:33:20;;;;;;;6.53;4.10;;;;;;;;;;5040690;28;20045;-73
2024/03/29 05:35:49;;;;;;;9.73;4.55;;;;;;;;;;5041053;28;20064;-75
2024/03/29 05:38:18;;;;;;;9.00;4.45;;;;;;;;;;5040624;28;20045;-74
2024/03/29 05:40:48;;;;;;;9.57;4.18;;;;;;;;;;5040628;28;20040;-75
2024/03/29 05:43:17;;;;;;;7.43;4.30;;;;;;;;;;5024382;28;20057;-75
2024/03/29 05:45:45;;;;;;;9.93;4.15;;;;;;;;;;5040801;28;20048;-75
2024/03/29 05:48:14;;;;;;;12.70;5.00;;;;;;;;;;5040400;28;20799;-75
2024/03/29 05:50:42;;;;;;;9.98;4.68;;;;;;;;;;5040688;28;20037;-74
2024/03/29 05:53:11;;;;;;;9.18;4.43;;;;;;;;;;5040746;28;20071;-75
2024/03/29 05:55:39;;;;;;;9.80;4.53;;;;;;;;;;5040663;28;20057;-75
2024/03/29 05:58:08;;;;;;;10.57;4.40;;;;;;;;;;5041189;28;20044;-74
2024/03/29 06:00:37;;;;;;;8.90;3.85;;;;;;;;;;5042669;28;20045;-74
2024/03/29 06:03:05;;;;;;;6.88;4.03;;;;;;;;;;5042066;28;20103;-73
2024/03/29 06:05:34;;;;;;;6.78;3.83;;;;;;;;;;5042227;28;20060;-75
2024/03/29 06:08:05;;;;;;;9.85;3.83;;;;;;;;;;5041055;28;20049;-73
2024/03/29 06:10:34;;;;;;;10.27;3.58;;;;;;;;;;5040762;28;20583;-73
2024/03/29 06:13:07;;;;;;;9.50;3.85;;;;;;;;;;5040723;28;20067;-75
2024/03/29 06:18:23;;;;;;;9.75;3.50;;;;;;;;;;5040678;28;20412;-74
2024/03/29 06:20:52;;;;;;;4.32;3.42;;;;;;;;;;5043755;28;20063;-75
2024/03/29 06:23:21;;;;;;;8.05;3.83;;;;;;;;;;5043959;28;20049;-74
2024/03/29 06:25:49;;;;;;;7.75;3.40;;;;;;;;;;5044139;28;20048;-74
2024/03/29 06:28:17;;;;;;;8.65;3.72;;;;;;;;;;5043953;28;20049;-74
2024/03/29 06:30:46;;;;;;;7.15;3.63;;;;;;;;;;5044571;28;20512;-74
2024/03/29 06:33:14;;;;;;;8.93;4.05;;;;;;;;;;5044312;28;20041;-76
2024/03/29 06:35:44;;;;;;;10.25;4.50;;;;;;;;;;5044214;28;20056;-75
2024/03/29 06:38:14;;;;;;;11.07;3.63;;;;;;;;;;5027793;28;20519;-75
2024/03/29 06:40:43;;;;;;;8.20;4.18;;;;;;;;;;5044339;28;20053;-73
2024/03/29 06:43:12;;;;;;;6.70;4.00;;;;;;;;;;5029074;28;20041;-72
2024/03/29 06:45:44;;;;;;;6.65;3.70;;;;;;;;;;5047108;28;20405;-75
2024/03/29 06:48:13;;;;;;;9.65;4.05;;;;;;;;;;5045113;28;20048;-74
2024/03/29 06:50:42;;;;;;;8.45;4.47;;;;;;;;;;5043990;28;20056;-74
2024/03/29 06:53:11;;;;;;;8.50;3.83;;;;;;;;;;5043656;28;20041;-75
2024/03/29 06:55:39;;;;;;;6.80;3.53;;;;;;;;;;5043588;28;20068;-73
2024/03/29 06:58:07;;;;;;;8.60;3.50;;;;;;;;;;5043643;28;20045;-74
2024/03/29 07:00:36;;;;;;;6.60;3.88;;;;;;;;;;5043606;28;20040;-75
2024/03/29 07:03:05;;;;;;;6.22;3.78;;;;;;;;;;5044074;28;20044;-75
2024/03/29 07:05:33;;;;;;;7.82;3.63;;;;;;;;;;5042908;28;20048;-74
2024/03/29 07:08:01;;;;;;;6.60;3.60;;;;;;;;;;5043443;28;20103;-75
2024/03/29 07:10:30;;;;;;;11.57;4.22;;;;;;;;;;5043814;28;20045;-73
2024/03/29 07:13:01;;;;;;;8.85;4.22;;;;;;;;;;5043450;28;20056;-75
2024/03/29 07:15:29;;;;;;;8.48;4.10;;;;;;;;;;5043556;28;20049;-76
2024/03/29 07:17:58;;;;;;;;;;;;;;;;;;5027132;28;20041;-74
2024/03/29 07:20:26;;;;;;;8.45;4.18;;;;;;;;;;5043186;28;19925;-75
2024/03/29 07:22:55;;;;;;;7.75;3.80;;;;;;;;;;5043221;28;20060;-74
2024/03/29 07:25:24;;;;;;;7.70;3.50;;;;;;;;;;5043799;28;20420;-75
2024/03/29 07:27:53;;;;;;;7.40;3.78;;;;;;;;;;5043136;28;20526;-74
2024/03/29 07:30:21;;;;;;;7.22;4.28;;;;;;;;;;5043498;28;20044;-74
2024/03/29 07:32:50;;;;;;;9.07;4.10;;;;;;;;;;5042192;28;20111;-75
2024/03/29 07:35:18;;;;;;;8.30;4.07;;;;;;;;;;5043386;28;20060;-73
2024/03/29 07:37:49;;;;;;;6.40;3.90;;;;;;;;;;5027630;28;20060;-76
2024/03/29 07:40:17;;;;;;;8.68;4.18;;;;;;;;;;5027086;28;20055;-73
2024/03/29 07:42:46;;;;;;;6.85;4.07;;;;;;;;;;5026698;28;20052;-73
2024/03/29 07:45:14;;;;;;;9.57;4.32;;;;;;;;;;5043318;28;20045;-74
2024/03/29 07:47:43;;;;;;;11.55;3.92;;;;;;;;;;5044161;28;20056;-73
2024/03/29 07:50:12;;;;;;;8.68;3.80;;;;;;;;;;5044628;28;20881;-75
2024/03/29 07:52:41;;;;;;;7.55;3.72;;;;;;;;;;5043688;28;20041;-75
2024/03/29 07:55:10;;;;;;;6.88;3.83;;;;;;;;;;5043600;28;20052;-73
2024/03/29 07:57:38;;;;;;;6.45;3.60;;;;;;;;;;5042709;28;20052;-72
2024/03/29 08:00:08;;;;;;;8.40;3.65;;;;;;;;;;5043633;28;20045;-75
2024/03/29 08:02:38;;;;;;;6.18;4.03;;;;;;;;;;5042903;28;20052;-74
2024/03/29 08:05:08;;;;;;;7.00;3.80;;;;;;;;;;5043386;28;20041;-75
2024/03/29 08:07:36;;;;;;;7.43;4.75;;;;;;;;;;5043916;28;20049;-75
2024/03/29 08:10:06;;;;;;;6.35;4.28;;;;;;;;;;5026941;28;20045;-73
2024/03/29 08:12:35;;;;;;;9.25;4.00;;;;;;;;;;5042253;28;20045;-75
2024/03/29 08:15:05;;;;;;;6.53;3.92;;;;;;;;;;5043026;28;20412;-74
2024/03/29 08:17:32;;;;;;;;;;;;;;;;;;5027011;28;20049;-75
2024/03/29 08:20:03;;;;;;;5.78;3.80;;;;;;;;;;5042580;28;20300;-72
2024/03/29 08:22:35;;;;;;;10.05;4.13;;;;;;;;;;5042276;28;20049;-74
2024/03/29 08:25:03;;;;;;;7.03;4.53;;;;;;;;;;5042284;28;20045;-74
2024/03/29 08:27:31;;;;;;;8.20;4.10;;;;;;;;;;5009381;28;20057;-73
2024/03/29 08:30:00;;;;;;;11.38;4.82;;;;;;;;;;5026643;28;20096;-74
2024/03/29 08:32:29;;;;;;;5.80;4.05;;;;;;;;;;5043146;28;20049;-73
2024/03/29 08:34:58;;;;;;;7.20;3.80;;;;;;;;;;5043450;28;20599;-74
2024/03/29 08:37:27;;;;;;;10.18;4.13;;;;;;;;;;5042384;28;20049;-73
2024/03/29 08:39:56;;;;;;;8.10;4.35;;;;;;;;;;5042470;28;20041;-72
2024/03/29 08:42:24;;;;;;;12.75;4.63;;;;;;;;;;5041989;28;20032;-73
2024/03/29 08:44:53;;;;;;;8.50;4.28;;;;;;;;;;5042155;28;20045;-75
2024/03/29 08:47:22;;;;;;;11.30;3.97;;;;;;;;;;5042118;28;20052;-75
2024/03/29 08:49:50;;;;;;;6.50;4.03;;;;;;;;;;5041799;28;20041;-74
2024/03/29 08:52:18;;;;;;;11.10;4.38;;;;;;;;;;5041701;28;20049;-76
2024/03/29 08:54:47;;;;;;;10.48;4.75;;;;;;;;;;5041603;28;20053;-73
2024/03/29 08:57:15;;;;;;;7.22;4.63;;;;;;;;;;5041426;28;20053;-76
2024/03/29 08:59:47;;;;;;;8.27;4.43;;;;;;;;;;5041874;28;20136;-75
2024/03/29 09:02:16;;;;;;;10.27;4.68;;;;;;;;;;5042199;28;20515;-75
2024/03/29 09:04:44;;;;;;;9.80;4.45;;;;;;;;;;5041775;28;20060;-74
2024/03/29 09:07:13;;;;;;;7.45;4.30;;;;;;;;;;5041633;28;20056;-74
2024/03/29 09:09:41;;;;;;;8.25;4.75;;;;;;;;;;5041108;28;20049;-73
2024/03/29 09:12:14;;;;;;;10.65;4.57;;;;;;;;;;5041036;28;20041;-75
2024/03/29 09:14:43;;;;;;;10.75;4.85;;;;;;;;;;5041929;28;20060;-73
2024/03/29 09:17:11;;;;;;;12.23;4.80;;;;;;;;;;5041124;28;21123;-74
2024/03/29 09:19:40;;;;;;;10.50;4.72;;;;;;;;;;5041693;28;20061;-74
2024/03/29 09:22:08;;;;;;;6.82;4.00;;;;;;;;;;5041400;28;20404;-73
2024/03/29 09:24:39;;;;;;;8.30;4.13;;;;;;;;;;5024833;28;20048;-73
2024/03/29 09:27:08;;;;;;;8.68;4.35;;;;;;;;;;5041216;28;20115;-74
2024/03/29 09:29:36;;;;;;;8.57;4.28;;;;;;;;;;5040826;28;20048;-75
2024/03/29 09:32:05;;;;;;;10.20;5.20;;;;;;;;;;5041558;28;20060;-75
2024/03/29 09:34:35;;;;;;;9.02;4.93;;;;;;;;;;5024753;28;20048;-74
2024/03/29 09:37:05;;;;;;;8.85;4.13;;;;;;;;;;5040972;28;20522;-75
2024/03/29 09:39:33;;;;;;;;;;;;;;;;;;5041611;28;20041;-73
2024/03/29 09:42:03;;;;;;;9.10;4.47;;;;;;;;;;5040796;28;19924;-72
2024/03/29 09:44:36;;;;;;;10.82;5.10;;;;;;;;;;5041367;28;20057;-74
2024/03/29 09:47:06;;;;;;;10.40;4.75;;;;;;;;;;5040876;28;20049;-74
2024/03/29 09:49:35;;;;;;;7.13;4.80;;;;;;;;;;5041102;28;20542;-74
2024/03/29 09:52:04;;;;;;;8.90;4.38;;;;;;;;;;5040766;28;20060;-72
2024/03/29 09:54:33;;;;;;;8.95;5.20;;;;;;;;;;5040121;28;20436;-75
2024/03/29 09:57:01;;;;;;;;;;;;;;;;;;5041388;28;20049;-73
2024/03/29 09:59:29;;;;;;;9.35;5.72;;;;;;;;;;5040409;28;20319;-75
2024/03/29 10:01:59;;;;;;;6.93;4.57;;;;;;;;;;5039977;28;20044;-73
2024/03/29 10:04:28;;;;;;;;;;;;;;;;;;5041442;28;20041;-73
2024/03/29 10:06:58;;;;;;;8.10;4.28;;;;;;;;;;5040833;28;19924;-76
2024/03/29 10:09:29;;;;;;;13.48;5.10;;;;;;;;;;5040935;28;20043;-72
2024/03/29 10:11:57;;;;;;;7.80;4.60;;;;;;;;;;5039782;28;20769;-72
2024/03/29 10:14:26;;;;;;;8.90;4.72;;;;;;;;;;5039444;28;20401;-76
2024/03/29 10:16:55;;;;;;;8.30;5.15;;;;;;;;;;5040109;28;20033;-75
2024/03/29 10:19:24;;;;;;;11.70;5.18;;;;;;;;;;5024269;28;20052;-74
2024/03/29 10:21:53;;;;;;;11.30;5.82;;;;;;;;;;5040750;28;20060;-74
2024/03/29 10:24:21;;;;;;;8.07;4.95;;;;;;;;;;5039886;28;20059;-76
2024/03/29 10:26:49;;;;;;;8.77;5.25;;;;;;;;;;5039969;28;20041;-73
2024/03/29 10:29:17;;;;;;;8.00;4.78;;;;;;;;;;5040449;28;20093;-74
2024/03/29 10:31:49;;;;;;;10.10;4.53;;;;;;;;;;5040172;28;20052;-74
2024/03/29 10:34:19;;;;;;;12.20;4.80;;;;;;;;;;5040873;28;20419;-74
2024/03/29 10:36:50;;;;;;;;;;;;;;;;;;5041402;28;20433;-77
2024/03/29 10:39:21;;;;;;;10.60;4.90;;;;;;;;;;5040672;28;20407;-76
2024/03/29 10:41:52;;;;;;;11.52;4.90;;;;;;;;;;5040121;28;20041;-75
2024/03/29 10:44:22;;;;;;;8.88;4.50;;;;;;;;;;5039845;28;20041;-75
2024/03/29 10:46:51;;;;;;;12.68;5.15;;;;;;;;;;5040862;28;20049;-74
2024/03/29 10:49:20;;;;;;;11.18;5.35;;;;;;;;;;5040290;28;20056;-76
2024/03/29 10:51:51;;;;;;;9.63;5.05;;;;;;;;;;5039680;28;20048;-75
2024/03/29 10:54:20;;;;;;;11.18;4.18;;;;;;;;;;5039931;28;20056;-72
2024/03/29 10:56:51;;;;;;;12.05;4.55;;;;;;;;;;5039896;28;20049;-76
2024/03/29 10:59:32;;;;;;;8.52;4.38;;;;;;;;;;5040104;28;20420;-75
2024/03/29 11:02:07;;;;;;;7.40;4.82;;;;;;;;;;5040484;28;20049;-75
2024/03/29 11:04:37;;;;;;;;;;;;;;;;;;5040222;28;20045;-75
2024/03/29 11:07:10;;;;;;;6.20;4.57;;;;;;;;;;5043077;28;19924;-74
2024/03/29 11:09:41;;;;;;;11.25;4.57;;;;;;;;;;5010960;28;20542;-74
2024/03/29 11:12:11;;;;;;;10.65;4.85;;;;;;;;;;5043648;28;20044;-74
2024/03/29 11:14:47;;;;;;;6.63;4.22;;;;;;;;;;5043199;28;20423;-74
2024/03/29 11:17:18;;;;;;;;;;;;;;;;;;5043933;28;20056;-76
2024/03/29 11:19:46;;;;;;;11.52;3.95;;;;;;;;;;5042755;28;19932;-75
2024/03/29 11:22:17;;;;;;;8.05;3.80;;;;;;;;;;5043556;28;20045;-74
2024/03/29 11:24:46;;;;;;;12.77;4.32;;;;;;;;;;5027361;28;20534;-75
2024/03/29 11:27:15;;;;;;;9.93;4.07;;;;;;;;;;5043160;28;20044;-76
2024/03/29 11:29:47;;;;;;;6.13;3.25;;;;;;;;;;5043657;28;20052;-85
2024/03/29 11:32:15;;;;;;;11.57;3.40;;;;;;;;;;5042992;28;20049;-77
2024/03/29 11:34:46;;;;;;;7.47;3.13;;;;;;;;;;5044233;28;20048;-74
2024/03/29 11:37:16;;;;;;;10.75;3.38;;;;;;;;;;5043203;28;20049;-76
2024/03/29 11:39:49;;;;;;;7.97;3.30;;;;;;;;;;5042813;28;20057;-75
2024/03/29 11:42:17;;;;;;;13.55;2.75;;;;;;;;;;5042578;28;20044;-74
2024/03/29 11:44:46;;;;;;;11.85;3.00;;;;;;;;;;5043421;28;20048;-75
2024/03/29 11:47:18;;;;;;;4.47;2.60;;;;;;;;;;5042514;28;20056;-74
2024/03/29 11:49:55;;;;;;;6.15;2.53;;;;;;;;;;5042997;28;20037;-76
2024/03/29 11:52:27;;;;;;;6.70;2.75;;;;;;;;;;5042982;28;20059;-75
2024/03/29 11:54:58;;;;;;;5.43;2.65;;;;;;;;;;5039887;28;20427;-74
2024/03/29 11:57:27;;;;;;;3.92;2.15;;;;;;;;;;5022521;28;20460;-77
2024/03/29 11:59:55;;;;;;;5.00;2.47;;;;;;;;;;5028667;28;20057;-76
2024/03/29 12:02:23;;;;;;;3.30;2.05;;;;;;;;;;5030760;28;20042;-74
2024/03/29 12:04:52;;;;;;;5.43;2.35;;;;;;;;;;5033544;28;20141;-74
2024/03/29 12:07:21;;;;;;;4.10;2.03;;;;;;;;;;5028992;28;20049;-75
2024/03/29 12:09:50;;;;;;;6.80;2.22;;;;;;;;;;5022419;28;20543;-76
2024/03/29 12:12:18;;;;;;;7.07;2.33;;;;;;;;;;5022722;28;20045;-75
2024/03/29 12:14:47;;;;;;;5.40;2.20;;;;;;;;;;5022744;28;20064;-74
2024/03/29 12:17:15;;;;;;;7.13;2.50;;;;;;;;;;5023068;28;20060;-77
2024/03/29 12:19:47;;;;;;;6.60;2.33;;;;;;;;;;5022755;28;20049;-77
2024/03/29 12:22:19;;;;;;;6.18;2.20;;;;;;;;;;5025109;28;20049;-75
2024/03/29 12:24:47;;;;;;;9.45;2.67;;;;;;;;;;5022024;28;20049;-75
2024/03/29 12:27:17;;;;;;;4.60;2.33;;;;;;;;;;5005889;28;20042;-78
2024/03/29 12:29:46;;;;;;;3.53;2.38;;;;;;;;;;5022384;28;20400;-75
2024/03/29 12:32:20;;;;;;;4.43;1.90;;;;;;;;;;5005815;28;20060;-76
2024/03/29 12:34:48;;;;;;;3.90;2.20;;;;;;;;;;5021980;28;20392;-77
2024/03/29 12:37:17;;;;;;;4.72;1.83;;;;;;;;;;5022113;28;20045;-78
2024/03/29 12:39:46;;;;;;;;;;;;;;;;;;5022220;28;20508;-74
2024/03/29 12:42:14;;;;;;;7.70;2.15;;;;;;;;;;5021610;28;21017;-77
2024/03/29 12:44:42;;;;;;;;;;;;;;;;;;5023052;28;20634;-76
2024/03/29 12:47:11;;;;;;;3.53;1.98;;;;;;;;;;5026542;28;20509;-74
2024/03/29 12:49:42;;;;;;;4.10;2.05;;;;;;;;;;5024720;28;20461;-75
2024/03/29 12:52:11;;;;;;;7.25;1.85;;;;;;;;;;5025051;28;20041;-76
2024/03/29 12:54:39;;;;;;;4.60;2.20;;;;;;;;;;5022170;28;20064;-79
2024/03/29 12:57:08;;;;;;;;;;;;;;;;;;5022421;28;20045;-76
2024/03/29 12:59:37;;;;;;;2.50;1.75;;;;;;;;;;5005264;28;19932;-76
2024/03/29 13:02:06;;;;;;;4.78;1.85;;;;;;;;;;5005926;28;20057;-76
2024/03/29 13:04:34;;;;;;;3.38;1.70;;;;;;;;;;5005517;28;20046;-77
2024/03/29 13:07:02;;;;;;;10.25;2.00;;;;;;;;;;5021933;28;20049;-76
2024/03/29 13:09:31;;;;;;;3.95;1.77;;;;;;;;;;5021269;28;20038;-73
2024/03/29 13:12:00;;;;;;;7.38;2.08;;;;;;;;;;5020984;28;20535;-77
2024/03/29 13:14:29;;;;;;;7.50;1.90;;;;;;;;;;5020569;28;20056;-75
2024/03/29 13:16:59;;;;;;;4.10;1.92;;;;;;;;;;5035739;28;20056;-75
2024/03/29 13:19:27;;;;;;;4.95;1.92;;;;;;;;;;5040308;28;20052;-76
2024/03/29 13:21:55;;;;;;;10.40;2.13;;;;;;;;;;5040293;28;20041;-78
2024/03/29 13:24:23;;;;;;;2.50;1.83;;;;;;;;;;5024629;28;20048;-74
2024/03/29 13:26:52;;;;;;;6.78;1.63;;;;;;;;;;5040016;28;20052;-74
2024/03/29 13:29:21;;;;;;;3.60;2.00;;;;;;;;;;5040404;28;20149;-75
2024/03/29 13:31:50;;;;;;;8.68;2.00;;;;;;;;;;5040892;28;20044;-74
2024/03/29 13:34:18;;;;;;;6.78;2.05;;;;;;;;;;5040983;28;20060;-74
2024/03/29 13:36:47;;;;;;;4.28;1.98;;;;;;;;;;5041248;28;20107;-75
2024/03/29 13:39:16;;;;;;;5.57;1.73;;;;;;;;;;5040894;28;20072;-74
2024/03/29 13:41:45;;;;;;;5.05;1.73;;;;;;;;;;5041197;28;20037;-75
2024/03/29 13:44:17;;;;;;;6.57;2.15;;;;;;;;;;5040885;28;20033;-76
2024/03/29 13:46:46;;;;;;;3.53;1.67;;;;;;;;;;5041015;28;20059;-76
2024/03/29 13:49:13;;;;;;;;;;;;;;;;;;5023666;28;20061;-74
2024/03/29 13:51:42;;;;;;;4.20;2.60;;;;;;;;;;5040229;28;20080;-74
2024/03/29 13:54:10;;;;;;;8.32;1.83;;;;;;;;;;5040412;28;20036;-74
2024/03/29 13:56:39;;;;;;;4.13;2.00;;;;;;;;;;5024624;28;20041;-74
2024/03/29 13:59:07;;;;;;;4.25;1.92;;;;;;;;;;5040236;28;20049;-75
2024/03/29 14:01:36;;;;;;;4.65;2.10;;;;;;;;;;5040320;28;20041;-75
2024/03/29 14:04:04;;;;;;;4.43;2.30;;;;;;;;;;5041285;28;20041;-75
2024/03/29 14:06:33;;;;;;;5.38;1.95;;;;;;;;;;5040326;28;20041;-75
2024/03/29 14:09:02;;;;;;;5.47;1.92;;;;;;;;;;5041062;28;20045;-82
2024/03/29 14:11:31;;;;;;;4.25;2.10;;;;;;;;;;5040535;28;20041;-77
2024/03/29 14:13:59;;;;;;;6.90;2.00;;;;;;;;;;5041180;28;20047;-75
2024/03/29 14:16:28;;;;;;;5.63;1.70;;;;;;;;;;5040586;28;20044;-78
2024/03/29 14:18:56;;;;;;;5.90;1.75;;;;;;;;;;5040781;28;20648;-76
2024/03/29 14:21:24;;;;;;;4.97;1.77;;;;;;;;;;5040845;28;20040;-80
2024/03/29 14:23:54;;;;;;;3.17;1.48;;;;;;;;;;5040421;28;20064;-74
2024/03/29 14:26:23;;;;;;;6.63;1.83;;;;;;;;;;5040632;28;20045;-76
2024/03/29 14:28:51;;;;;;;5.00;1.73;;;;;;;;;;5040923;28;20742;-76
2024/03/29 14:31:21;;;;;;;3.72;1.60;;;;;;;;;;5040489;28;20041;-76
2024/03/29 14:33:49;;;;;;;3.97;1.88;;;;;;;;;;5040149;28;20044;-77
2024/03/29 14:36:18;;;;;;;5.82;1.98;;;;;;;;;;5041002;28;20510;-76
2024/03/29 14:38:47;;;;;;;;;;;;;;;;;;5041261;28;20069;-76
2024/03/29 14:41:16;;;;;;;5.88;3.00;;;;;;;;;;5042336;28;19948;-75
2024/03/29 14:43:46;;;;;;;4.53;1.65;;;;;;;;;;5043814;28;20522;-79
2024/03/29 14:46:14;;;;;;;4.57;1.83;;;;;;;;;;5043837;28;20049;-79
2024/03/29 14:48:43;;;;;;;5.28;1.50;;;;;;;;;;5043575;28;20384;-75
2024/03/29 14:51:12;;;;;;;5.40;1.75;;;;;;;;;;5027729;28;20053;-75
2024/03/29 14:53:47;;;;;;;4.20;2.05;;;;;;;;;;5043617;28;20044;-77
2024/03/29 14:56:19;;;;;;;4.25;1.88;;;;;;;;;;5027196;28;20524;-75
2024/03/29 14:58:47;;;;;;;6.63;1.85;;;;;;;;;;5043819;28;20044;-76
2024/03/29 15:01:15;;;;;;;4.53;1.50;;;;;;;;;;5043921;28;20044;-76